Aérodrome :
LOGIN :

S'inscrire | Disclaimer

   EN    FR    IT 

 










Légende :    VFR   VFR Marginal   IFR   IFR Intensif   IFR Très Intensif
Visi : 
Plafond : 
>= 8 km
>= 3000ft
5 à 8 km
1000 à 3000 ft
1500m à 5 km
500 à 1000 ft
800 à 1500m
200 à 500 ft
< 800m
< 200 ft
Symboles :   Orages  Brouillard  Fortes neiges  Fortes précipitations  Vent > 20 kt
SIGMETs :   Divers  Orages  Givrage  Turbulence  Onde Orograph.  Cendres Volcan.







- Altitude de l'aérodrome : 156 ft
- Code IATA : LCC


LIBN - Lecce Galatine (military)

DERNIER METAR :
  • 100809Z 30011KT 9999 TS FEW010 FEW020CB SCT025 12/10 Q1010 RMK BKN BKN120 VIS MIN 9999 WIND THR14 29009KT WIND THR32 30010KT BLU

METARs EXPIRÉS :
  • 100755Z 32008KT 9999 FEW010 FEW020CB SCT025 12/10 Q1009 RMK BKN BKN120 VIS MIN 9999 WIND THR14 31008KT WIND THR32 32008KT BLU
  • 100655Z 33007KT 9999 FEW020CB 10/08 Q1008 RMK SCT SCT120 VIS MIN 9999 WIND THR14 33006KT WIND THR32 33007KT BLU
  • 100555Z 29004KT 9999 FEW015TCU 08/08 Q1007 RMK SCT SCT080 VIS MIN 9999 WIND THR14 30005KT WIND THR32 28005KT BLU

TAF TAF LIBN
Valide du 10 à 06h jusqu'au 10 à 15h UTC


100500Z 1006/1015 29015KT 9999 SCT025 SCT050
PROB30 1007/1012 FEW025CB
Pas de NOTAMs connus pour ce terrain.



MET'MAP, la Météo Aéronautique d'un coup d'oeil ! - Copyright ORBIFLY Décembre 2007 - Disclaimer

ORBIFLY MET'MAP TEAM :

Programmation & Développement : Alexandra Zaïnal
Conception & Développement : Baudouin d'Aumeries
Co-Programmation & Développement : Marc-Olivier Méhu
Soutien technique & logistique : Manuel Goepfert

Contact : metmap@orbifly.com




SOURCES & CREDITS :

   NOAA